Forreston, Texas
Current Conditions -  °F | °C
As of 4:35 PM on Sunday 21 Dec 2014 (Local Time) from KJWY Reporting Station
Overcast Overcast  
Wind Chill: 51°   Ceiling: 1600
Heat Index: 51°   Visibility: 10mi
Dew Point: 47°   Wind: 10mph
Humidity: 87%   Direction: 160°SSE
Pressure: 29.87"   Gusts: NA
Location:  32.26°N, 96.87°W
Report Text: KJWY 212235Z AUTO 16009KT 10SM BKN016 OVC022 11/08 A2987 RMK AO2 T01050084
Loading
Personal Weather Stations






























Interactive Weather Map New forecast layout! Learn more

10-Day Weather Forecast

Advertisements
Track Severe Weather on mobile